createdAt,value
2022-09-01T00:00:46.692Z,19.09
2022-09-01T00:01:49.311Z,18.97
2022-09-01T00:02:51.956Z,19.00
2022-09-01T00:03:54.665Z,18.95
2022-09-01T00:04:57.463Z,18.96
2022-09-01T00:05:59.988Z,18.99
2022-09-01T00:07:02.600Z,18.96
2022-09-01T00:08:05.580Z,19.01
2022-09-01T00:09:08.244Z,19.01
2022-09-01T00:10:11.631Z,18.99
2022-09-01T00:11:14.202Z,18.96
2022-09-01T00:12:16.824Z,18.88
2022-09-01T00:13:19.436Z,18.81
2022-09-01T00:14:30.249Z,18.84
2022-09-01T00:15:26.603Z,18.90
2022-09-01T00:16:30.407Z,18.88
2022-09-01T00:17:33.106Z,18.90
2022-09-01T00:18:35.708Z,18.92
2022-09-01T00:19:38.321Z,18.90
2022-09-01T00:20:41.495Z,18.82
2022-09-01T00:21:44.474Z,18.86
2022-09-01T00:22:47.120Z,18.88
2022-09-01T00:23:49.675Z,18.89
2022-09-01T00:24:52.299Z,18.88
2022-09-01T00:25:55.005Z,18.92
2022-09-01T00:26:58.102Z,18.82
2022-09-01T00:28:00.691Z,18.79
2022-09-01T00:29:03.260Z,18.68
2022-09-01T00:30:06.344Z,18.66
2022-09-01T00:31:09.076Z,18.67
2022-09-01T00:32:11.733Z,18.57
2022-09-01T00:33:14.303Z,18.59
2022-09-01T00:34:17.644Z,18.56
2022-09-01T00:35:20.313Z,18.63
2022-09-01T00:36:24.823Z,18.65
2022-09-01T00:37:27.582Z,18.65
2022-09-01T00:38:30.252Z,18.55
2022-09-01T00:39:32.824Z,18.41
2022-09-01T00:40:35.835Z,18.43
2022-09-01T00:41:38.524Z,18.52
2022-09-01T00:42:41.299Z,18.57
2022-09-01T00:43:43.835Z,18.60
2022-09-01T00:44:46.737Z,18.63
2022-09-01T00:45:49.377Z,18.72
2022-09-01T00:46:55.236Z,18.74
2022-09-01T00:47:57.245Z,18.76
2022-09-01T00:48:59.915Z,18.72
2022-09-01T00:50:03.226Z,18.71
2022-09-01T00:51:05.868Z,18.72
2022-09-01T00:52:08.595Z,18.72
2022-09-01T00:53:11.203Z,18.67
2022-09-01T00:54:13.773Z,18.67
2022-09-01T00:55:16.442Z,18.69
2022-09-01T00:56:20.137Z,18.69
2022-09-01T00:57:22.709Z,18.67
2022-09-01T00:58:25.372Z,18.62
2022-09-01T00:59:28.349Z,18.64
2022-09-01T01:00:32.040Z,18.60
2022-09-01T01:01:34.873Z,18.62
2022-09-01T01:02:37.702Z,18.48
2022-09-01T01:03:40.361Z,18.50
2022-09-01T01:04:43.040Z,18.51
2022-09-01T01:05:45.655Z,18.38
2022-09-01T01:06:48.633Z,18.40
2022-09-01T01:07:51.198Z,18.39
2022-09-01T01:08:53.807Z,18.43
2022-09-01T01:09:56.383Z,18.42
2022-09-01T01:10:59.363Z,18.42
2022-09-01T01:12:01.915Z,18.38
2022-09-01T01:13:04.488Z,18.33
2022-09-01T01:14:07.047Z,18.35
2022-09-01T01:15:09.615Z,18.37
2022-09-01T01:16:13.992Z,18.33
2022-09-01T01:17:16.899Z,18.27
2022-09-01T01:18:22.966Z,18.19
2022-09-01T01:19:23.976Z,18.14
2022-09-01T01:20:27.351Z,18.16
2022-09-01T01:21:29.954Z,18.16
2022-09-01T01:22:32.523Z,18.16
2022-09-01T01:23:35.087Z,18.15
2022-09-01T01:24:37.631Z,18.04
2022-09-01T01:25:40.200Z,18.08
2022-09-01T01:26:43.075Z,18.12
2022-09-01T01:27:45.603Z,18.21
2022-09-01T01:28:48.207Z,18.12
2022-09-01T01:29:50.772Z,18.16
2022-09-01T01:30:53.472Z,18.19
2022-09-01T01:31:56.110Z,18.21
2022-09-01T01:32:58.678Z,18.22
2022-09-01T01:34:02.068Z,18.25
2022-09-01T01:35:04.631Z,18.25
2022-09-01T01:36:08.028Z,18.22
2022-09-01T01:37:10.991Z,18.22
2022-09-01T01:38:13.968Z,18.17
2022-09-01T01:39:16.540Z,18.19
2022-09-01T01:40:19.981Z,18.23
2022-09-01T01:41:22.903Z,18.15
2022-09-01T01:42:25.831Z,18.18
2022-09-01T01:43:28.543Z,18.19
2022-09-01T01:44:31.068Z,18.18
2022-09-01T01:45:33.680Z,18.08
2022-09-01T01:46:36.859Z,18.16
2022-09-01T01:47:39.424Z,18.17
2022-09-01T01:48:41.990Z,18.06
2022-09-01T01:49:44.982Z,18.08
2022-09-01T01:50:47.640Z,18.07
2022-09-01T01:51:50.203Z,18.03
2022-09-01T01:52:55.159Z,18.00
2022-09-01T01:53:57.182Z,17.96
2022-09-01T01:55:04.500Z,17.98
2022-09-01T01:56:04.447Z,17.99
2022-09-01T01:57:07.237Z,17.97
2022-09-01T01:58:09.762Z,17.93
2022-09-01T01:59:12.371Z,17.91
2022-09-01T02:00:15.450Z,17.93
2022-09-01T02:01:17.938Z,17.88
2022-09-01T02:02:20.879Z,17.81
2022-09-01T02:03:23.558Z,17.80
2022-09-01T02:04:26.122Z,17.83
2022-09-01T02:05:28.733Z,17.83
2022-09-01T02:06:33.139Z,17.85
2022-09-01T02:07:35.627Z,17.80
2022-09-01T02:08:38.254Z,17.78
2022-09-01T02:09:40.905Z,17.80
2022-09-01T02:10:43.787Z,17.82
2022-09-01T02:11:46.450Z,17.75
2022-09-01T02:12:49.016Z,17.66
2022-09-01T02:13:51.541Z,17.56
2022-09-01T02:14:54.151Z,17.63
2022-09-01T02:15:56.819Z,17.59
2022-09-01T02:16:59.806Z,17.58
2022-09-01T02:18:05.022Z,17.49
2022-09-01T02:19:06.996Z,17.52
2022-09-01T02:20:10.566Z,17.43
2022-09-01T02:21:17.791Z,17.49
2022-09-01T02:22:17.545Z,17.46
2022-09-01T02:23:20.234Z,17.50
2022-09-01T02:24:23.252Z,17.51
2022-09-01T02:25:25.860Z,17.51
2022-09-01T02:26:28.998Z,17.53
2022-09-01T02:27:31.630Z,17.50
2022-09-01T02:28:34.283Z,17.52
2022-09-01T02:29:38.620Z,17.49
2022-09-01T02:30:41.594Z,17.49
2022-09-01T02:31:44.230Z,17.44
2022-09-01T02:32:46.754Z,17.42
2022-09-01T02:33:49.363Z,17.40
2022-09-01T02:34:51.994Z,17.33
2022-09-01T02:35:54.707Z,17.25
2022-09-01T02:36:57.420Z,17.31
2022-09-01T02:38:00.040Z,17.28
2022-09-01T02:39:02.610Z,17.24
2022-09-01T02:40:05.596Z,17.23
2022-09-01T02:41:08.255Z,17.24
2022-09-01T02:42:10.927Z,17.26
2022-09-01T02:43:13.488Z,17.27
2022-09-01T02:44:16.063Z,17.17
2022-09-01T02:45:18.727Z,17.11
2022-09-01T02:46:23.041Z,17.13
2022-09-01T02:47:27.340Z,17.08
2022-09-01T02:48:31.812Z,17.04
2022-09-01T02:49:35.402Z,17.12
2022-09-01T02:50:38.727Z,17.14
2022-09-01T02:51:41.306Z,17.17
2022-09-01T02:52:43.864Z,17.20
2022-09-01T02:53:46.696Z,17.16
2022-09-01T02:54:49.303Z,17.18
2022-09-01T02:55:51.927Z,17.15
2022-09-01T02:56:54.621Z,17.12
2022-09-01T02:57:57.411Z,17.08
2022-09-01T02:58:59.982Z,17.13
2022-09-01T03:00:02.648Z,17.18
2022-09-01T03:01:05.492Z,17.12
2022-09-01T03:02:08.697Z,17.14
2022-09-01T03:03:12.911Z,17.18
2022-09-01T03:04:15.476Z,17.20
2022-09-01T03:05:18.046Z,17.19
2022-09-01T03:06:21.532Z,17.13
2022-09-01T03:07:24.098Z,17.16
2022-09-01T03:08:26.620Z,17.09
2022-09-01T03:09:29.129Z,17.12
2022-09-01T03:10:31.910Z,17.13
2022-09-01T03:11:34.474Z,17.14
2022-09-01T03:12:37.139Z,17.08
2022-09-01T03:13:39.662Z,17.10
2022-09-01T03:14:42.272Z,17.14
2022-09-01T03:15:45.203Z,17.10
2022-09-01T03:16:48.097Z,17.09
2022-09-01T03:17:50.898Z,17.15
2022-09-01T03:18:53.563Z,17.15
2022-09-01T03:19:56.128Z,17.17
2022-09-01T03:20:59.165Z,17.14
2022-09-01T03:22:02.183Z,17.15
2022-09-01T03:23:04.812Z,17.10
2022-09-01T03:24:07.626Z,17.08
2022-09-01T03:25:10.297Z,17.05
2022-09-01T03:26:14.091Z,17.07
2022-09-01T03:27:16.657Z,16.99
2022-09-01T03:28:19.396Z,17.05
2022-09-01T03:29:22.177Z,17.08
2022-09-01T03:30:25.588Z,17.10
2022-09-01T03:31:30.942Z,17.12
2022-09-01T03:32:32.568Z,17.14
2022-09-01T03:33:35.248Z,17.19
2022-09-01T03:34:37.801Z,17.21
2022-09-01T03:35:40.496Z,17.21
2022-09-01T03:36:43.200Z,17.20
2022-09-01T03:37:45.765Z,17.19
2022-09-01T03:38:48.333Z,17.19
2022-09-01T03:39:50.943Z,17.20
2022-09-01T03:40:55.660Z,17.15
2022-09-01T03:41:58.225Z,17.11
2022-09-01T03:43:00.895Z,17.08
2022-09-01T03:44:03.831Z,17.12
2022-09-01T03:45:06.444Z,17.12
2022-09-01T03:46:09.814Z,17.09
2022-09-01T03:47:12.701Z,17.05
2022-09-01T03:48:15.372Z,17.07
2022-09-01T03:49:18.039Z,17.05
2022-09-01T03:50:21.279Z,17.06
2022-09-01T03:51:23.992Z,17.11
2022-09-01T03:52:26.556Z,17.18
2022-09-01T03:53:29.164Z,17.23
2022-09-01T03:54:31.692Z,17.27
2022-09-01T03:55:34.362Z,17.17
2022-09-01T03:56:37.645Z,17.18
2022-09-01T03:57:40.209Z,17.29
2022-09-01T03:58:42.996Z,17.15
2022-09-01T03:59:45.658Z,17.24
2022-09-01T04:00:48.971Z,17.31
2022-09-01T04:01:52.280Z,17.20
2022-09-01T04:02:56.227Z,17.22
2022-09-01T04:03:58.965Z,17.23
2022-09-01T04:05:05.214Z,17.26
2022-09-01T04:06:06.276Z,17.26
2022-09-01T04:07:08.867Z,17.15
2022-09-01T04:08:12.022Z,17.17
2022-09-01T04:09:14.648Z,17.14
2022-09-01T04:10:18.595Z,17.11
2022-09-01T04:11:21.217Z,17.04
2022-09-01T04:12:23.824Z,17.08
2022-09-01T04:13:26.350Z,17.06
2022-09-01T04:14:29.868Z,17.08
2022-09-01T04:15:33.372Z,17.11
2022-09-01T04:16:36.150Z,17.11
2022-09-01T04:17:39.017Z,17.19
2022-09-01T04:18:41.586Z,17.21
2022-09-01T04:19:44.252Z,17.18
2022-09-01T04:20:46.877Z,17.21
2022-09-01T04:21:49.488Z,17.26
2022-09-01T04:22:52.071Z,17.32
2022-09-01T04:23:54.729Z,17.27
2022-09-01T04:24:57.700Z,17.29
2022-09-01T04:26:00.368Z,17.26
2022-09-01T04:27:02.942Z,17.27
2022-09-01T04:28:05.737Z,17.26
2022-09-01T04:29:08.385Z,17.29
2022-09-01T04:30:11.969Z,17.30
2022-09-01T04:31:14.572Z,17.35
2022-09-01T04:32:17.679Z,17.40
2022-09-01T04:33:20.283Z,17.48
2022-09-01T04:34:22.853Z,17.56
2022-09-01T04:35:25.520Z,17.62
2022-09-01T04:36:28.148Z,17.56
2022-09-01T04:37:30.763Z,17.64
2022-09-01T04:38:33.355Z,17.72
2022-09-01T04:39:35.895Z,17.84
2022-09-01T04:40:39.024Z,17.85
2022-09-01T04:41:42.216Z,17.87
2022-09-01T04:42:44.817Z,17.59
2022-09-01T04:43:47.370Z,17.52
2022-09-01T04:44:50.263Z,17.56
2022-09-01T04:45:52.902Z,17.63
2022-09-01T04:46:55.876Z,17.72
2022-09-01T04:47:58.476Z,17.71
2022-09-01T04:49:00.964Z,17.73
2022-09-01T04:50:04.568Z,17.76
2022-09-01T04:51:07.203Z,17.85
2022-09-01T04:52:09.871Z,17.84
2022-09-01T04:53:12.534Z,17.76
2022-09-01T04:54:15.108Z,17.76
2022-09-01T04:55:18.198Z,17.71
2022-09-01T04:56:23.008Z,17.78
2022-09-01T04:57:25.672Z,17.72
2022-09-01T04:58:28.445Z,17.77
2022-09-01T04:59:31.012Z,17.82
2022-09-01T05:00:34.970Z,17.87
2022-09-01T05:01:37.891Z,17.83
2022-09-01T05:02:40.864Z,17.95
2022-09-01T05:03:43.430Z,18.02
2022-09-01T05:04:46.205Z,18.07
2022-09-01T05:05:48.729Z,18.08
2022-09-01T05:06:51.852Z,18.12
2022-09-01T05:07:54.381Z,18.13
2022-09-01T05:08:56.951Z,18.19
2022-09-01T05:10:01.474Z,18.26
2022-09-01T05:11:04.164Z,18.24
2022-09-01T05:12:06.836Z,18.22
2022-09-01T05:13:09.508Z,18.34
2022-09-01T05:14:12.067Z,18.14
2022-09-01T05:15:14.704Z,18.13
2022-09-01T05:16:21.508Z,18.17
2022-09-01T05:17:22.690Z,18.26
2022-09-01T05:18:25.305Z,18.35
2022-09-01T05:19:27.926Z,18.33
2022-09-01T05:20:31.455Z,18.41
2022-09-01T05:21:34.440Z,18.44
2022-09-01T05:22:37.417Z,18.48
2022-09-01T05:23:40.080Z,18.36
2022-09-01T05:24:42.851Z,18.31
2022-09-01T05:25:45.441Z,18.40
2022-09-01T05:26:48.401Z,18.47
2022-09-01T05:27:51.063Z,18.63
2022-09-01T05:28:53.637Z,18.69
2022-09-01T05:29:56.300Z,18.82
2022-09-01T05:30:59.066Z,18.93
2022-09-01T05:32:02.055Z,19.00
2022-09-01T05:33:04.745Z,19.06
2022-09-01T05:34:07.384Z,19.11
2022-09-01T05:35:09.952Z,19.15
2022-09-01T05:36:13.348Z,19.08
2022-09-01T05:37:16.016Z,19.09
2022-09-01T05:38:19.150Z,18.90
2022-09-01T05:39:21.964Z,19.00
2022-09-01T05:40:24.979Z,18.85
2022-09-01T05:41:27.915Z,18.87
2022-09-01T05:42:30.438Z,18.86
2022-09-01T05:43:33.559Z,18.86
2022-09-01T05:44:36.130Z,18.92
2022-09-01T05:45:56.498Z,18.89
2022-09-01T05:46:43.735Z,18.88
2022-09-01T05:47:46.390Z,18.80
2022-09-01T05:48:48.951Z,18.80
2022-09-01T05:49:51.434Z,18.82
2022-09-01T05:50:54.394Z,18.74
2022-09-01T05:51:56.959Z,18.73
2022-09-01T05:52:59.530Z,18.73
2022-09-01T05:54:02.107Z,18.83
2022-09-01T05:55:04.666Z,18.97
2022-09-01T05:56:07.738Z,19.08
2022-09-01T05:57:32.630Z,19.23
2022-09-01T05:58:14.715Z,19.30
2022-09-01T05:59:25.805Z,19.46
2022-09-01T06:00:23.537Z,19.39
2022-09-01T06:01:26.618Z,19.73
2022-09-01T06:02:29.463Z,19.96
2022-09-01T06:03:32.283Z,20.09
2022-09-01T06:04:36.629Z,20.17
2022-09-01T06:05:39.240Z,20.11
2022-09-01T06:07:01.782Z,20.34
2022-09-01T06:07:46.934Z,20.67
2022-09-01T06:08:49.603Z,20.88
2022-09-01T06:09:52.169Z,21.12
2022-09-01T06:10:55.352Z,21.16
2022-09-01T06:11:58.185Z,21.48
2022-09-01T06:13:00.892Z,21.76
2022-09-01T06:14:03.772Z,21.76
2022-09-01T06:15:06.255Z,21.87
2022-09-01T06:16:09.766Z,21.86
2022-09-01T06:17:12.349Z,22.12
2022-09-01T06:18:14.962Z,22.31
2022-09-01T06:19:17.524Z,22.46
2022-09-01T06:20:21.728Z,22.39
2022-09-01T06:21:24.298Z,22.60
2022-09-01T06:22:27.072Z,22.63
2022-09-01T06:23:30.002Z,22.75
2022-09-01T06:24:32.610Z,22.95
2022-09-01T06:25:35.183Z,23.10
2022-09-01T06:26:38.360Z,23.27
2022-09-01T06:27:41.037Z,23.41
2022-09-01T06:28:43.657Z,23.50
2022-09-01T06:29:46.467Z,23.48
2022-09-01T06:30:49.245Z,23.49
2022-09-01T06:31:52.080Z,23.11
2022-09-01T06:32:55.000Z,22.56
2022-09-01T06:33:57.558Z,22.67
2022-09-01T06:35:00.286Z,22.35
2022-09-01T06:36:03.306Z,22.20
2022-09-01T06:37:05.867Z,22.15
2022-09-01T06:38:08.387Z,22.47
2022-09-01T06:39:12.543Z,22.66
2022-09-01T06:40:16.182Z,22.88
2022-09-01T06:41:18.798Z,22.89
2022-09-01T06:42:21.776Z,22.86
2022-09-01T06:43:24.451Z,22.71
2022-09-01T06:44:27.022Z,22.81
2022-09-01T06:45:29.687Z,22.99
2022-09-01T06:46:32.509Z,23.22
2022-09-01T06:47:35.440Z,23.42
2022-09-01T06:48:38.097Z,23.63
2022-09-01T06:49:40.665Z,23.69
2022-09-01T06:51:47.803Z,23.90
2022-09-01T06:53:54.952Z,23.87
2022-09-01T06:54:57.657Z,23.52
2022-09-01T06:56:01.494Z,23.34
2022-09-01T06:58:08.574Z,23.72
2022-09-01T06:59:11.559Z,23.88
2022-09-01T07:00:15.138Z,24.06
2022-09-01T07:01:17.954Z,24.17
2022-09-01T07:02:26.550Z,24.28
2022-09-01T07:03:25.300Z,24.40
2022-09-01T07:04:27.967Z,24.47
2022-09-01T07:08:05.361Z,24.31
2022-09-01T07:10:05.861Z,24.44
2022-09-01T07:13:05.978Z,24.70
2022-09-01T07:14:22.056Z,24.68
2022-09-01T07:16:35.469Z,24.55
2022-09-01T07:17:23.609Z,24.65
2022-09-01T07:18:26.929Z,24.46
2022-09-01T07:20:35.361Z,24.07
2022-09-01T07:21:41.674Z,24.21
2022-09-01T07:24:07.742Z,24.36
2022-09-01T07:25:11.538Z,24.28
2022-09-01T07:26:04.352Z,24.24
2022-09-01T07:27:09.325Z,24.31
2022-09-01T07:28:06.631Z,24.48
2022-09-01T07:29:09.195Z,24.61
2022-09-01T07:30:13.505Z,24.60
2022-09-01T07:35:34.732Z,25.34
2022-09-01T07:37:17.338Z,25.10
2022-09-01T07:38:49.767Z,25.05
2022-09-01T07:39:51.784Z,25.17
2022-09-01T07:42:55.652Z,25.19
2022-09-01T07:44:08.171Z,25.67
2022-09-01T07:45:27.098Z,25.84
2022-09-01T07:47:52.478Z,26.10
2022-09-01T07:49:33.810Z,26.38
2022-09-01T07:50:41.361Z,26.41
2022-09-01T07:51:39.237Z,26.51
2022-09-01T07:52:42.124Z,26.63
2022-09-01T07:53:44.788Z,26.65
2022-09-01T07:54:47.363Z,26.65
2022-09-01T07:55:49.969Z,26.75
2022-09-01T07:56:52.754Z,26.78
2022-09-01T07:57:56.077Z,26.86
2022-09-01T07:58:58.556Z,26.91
2022-09-01T08:00:01.151Z,26.78
2022-09-01T08:01:03.680Z,26.82
2022-09-01T08:02:06.241Z,26.89
2022-09-01T08:03:09.506Z,26.67
2022-09-01T08:04:12.370Z,26.06
2022-09-01T08:05:14.973Z,26.09
2022-09-01T08:06:18.401Z,26.13
2022-09-01T08:07:21.436Z,26.37
2022-09-01T08:08:29.415Z,26.49
2022-09-01T08:09:37.174Z,26.64
2022-09-01T08:10:36.695Z,26.28
2022-09-01T08:12:42.564Z,26.72
2022-09-01T08:13:51.945Z,26.92
2022-09-01T08:14:50.057Z,27.13
2022-09-01T08:16:16.809Z,27.39
2022-09-01T08:17:00.133Z,27.62
2022-09-01T08:18:04.978Z,27.69
2022-09-01T08:19:16.405Z,27.91
2022-09-01T08:20:14.038Z,28.16
2022-09-01T08:21:16.924Z,28.27
2022-09-01T08:22:19.906Z,28.37
2022-09-01T08:23:22.576Z,28.40
2022-09-01T08:24:25.235Z,28.59
2022-09-01T08:25:27.765Z,28.77
2022-09-01T08:26:30.886Z,28.81
2022-09-01T08:27:33.419Z,28.66
2022-09-01T08:28:36.019Z,28.48
2022-09-01T08:29:38.585Z,28.40
2022-09-01T08:30:41.559Z,28.30
2022-09-01T08:31:46.137Z,28.21
2022-09-01T08:32:49.052Z,28.32
2022-09-01T08:33:51.676Z,28.47
2022-09-01T08:34:54.287Z,28.15
2022-09-01T08:35:56.863Z,28.18
2022-09-01T08:36:59.760Z,28.39
2022-09-01T08:38:02.411Z,28.49
2022-09-01T08:39:05.622Z,28.75
2022-09-01T08:40:09.814Z,28.88
2022-09-01T08:41:12.554Z,28.95
2022-09-01T08:42:15.124Z,28.92
2022-09-01T08:43:17.932Z,29.01
2022-09-01T08:44:20.864Z,29.03
2022-09-01T08:45:23.432Z,28.99
2022-09-01T08:46:27.486Z,28.99
2022-09-01T08:47:39.506Z,29.01
2022-09-01T08:49:23.680Z,29.05
2022-09-01T08:49:46.673Z,29.02
2022-09-01T08:50:44.261Z,29.03
2022-09-01T08:51:49.530Z,29.13
2022-09-01T08:52:53.038Z,29.18
2022-09-01T08:53:55.906Z,29.19
2022-09-01T08:54:58.527Z,29.14
2022-09-01T08:56:01.085Z,29.12
2022-09-01T08:57:03.752Z,29.10
2022-09-01T08:58:06.848Z,29.16
2022-09-01T08:59:09.429Z,29.21
2022-09-01T09:00:12.728Z,29.24
2022-09-01T09:01:15.719Z,29.26
2022-09-01T09:02:20.308Z,29.24
2022-09-01T09:03:23.047Z,29.12
2022-09-01T09:04:25.612Z,29.18
2022-09-01T09:05:28.280Z,29.25
2022-09-01T09:06:31.360Z,29.18
2022-09-01T09:07:33.961Z,29.07
2022-09-01T09:08:36.556Z,28.93
2022-09-01T09:09:39.161Z,28.82
2022-09-01T09:10:42.076Z,28.79
2022-09-01T09:11:44.604Z,28.80
2022-09-01T09:12:50.221Z,28.81
2022-09-01T09:13:51.683Z,28.90
2022-09-01T09:14:54.250Z,29.08
2022-09-01T09:16:07.410Z,29.20
2022-09-01T09:17:01.736Z,29.40
2022-09-01T09:18:04.412Z,29.54
2022-09-01T09:19:08.922Z,29.68
2022-09-01T09:20:12.470Z,29.78
2022-09-01T09:21:15.138Z,29.68
2022-09-01T09:22:18.200Z,29.72
2022-09-01T09:23:21.678Z,29.73
2022-09-01T09:24:24.725Z,29.93
2022-09-01T09:25:29.238Z,30.13
2022-09-01T09:26:47.840Z,30.25
2022-09-01T09:27:37.040Z,30.39
2022-09-01T09:28:39.733Z,30.48
2022-09-01T09:29:42.679Z,30.51
2022-09-01T09:30:48.614Z,30.41
2022-09-01T09:31:51.496Z,30.44
2022-09-01T09:33:59.901Z,30.32
2022-09-01T09:35:03.050Z,30.05
2022-09-01T09:36:06.027Z,29.81
2022-09-01T09:37:08.632Z,29.46
2022-09-01T09:38:11.199Z,29.17
2022-09-01T09:39:13.749Z,28.96
2022-09-01T09:40:18.198Z,28.80
2022-09-01T09:41:26.947Z,28.65
2022-09-01T09:42:29.865Z,28.53
2022-09-01T09:43:30.587Z,28.37
2022-09-01T09:44:33.166Z,28.38
2022-09-01T09:45:35.824Z,28.63
2022-09-01T09:46:38.674Z,28.76
2022-09-01T09:47:45.147Z,28.72
2022-09-01T09:48:46.083Z,28.99
2022-09-01T09:49:49.026Z,29.19
2022-09-01T09:50:52.652Z,29.46
2022-09-01T09:51:55.544Z,29.60
2022-09-01T09:52:58.220Z,29.79
2022-09-01T09:54:00.969Z,29.95
2022-09-01T09:55:04.641Z,30.04
2022-09-01T09:56:07.840Z,29.96
2022-09-01T09:57:10.394Z,29.72
2022-09-01T09:58:13.004Z,29.68
2022-09-01T09:59:15.546Z,29.69
2022-09-01T10:00:20.710Z,29.82
2022-09-01T10:01:24.519Z,29.67
2022-09-01T10:02:28.247Z,29.67
2022-09-01T10:03:31.132Z,29.62
2022-09-01T10:04:34.077Z,29.47
2022-09-01T10:05:36.678Z,29.35
2022-09-01T10:06:39.492Z,29.08
2022-09-01T10:07:42.016Z,28.72
2022-09-01T10:08:44.537Z,28.30
2022-09-01T10:09:48.068Z,27.96
2022-09-01T10:10:57.330Z,28.03
2022-09-01T10:11:55.665Z,28.18
2022-09-01T10:13:01.888Z,28.30
2022-09-01T10:14:04.439Z,28.44
2022-09-01T10:15:12.416Z,28.44
2022-09-01T10:16:11.764Z,28.58
2022-09-01T10:17:15.299Z,28.55
2022-09-01T10:18:28.401Z,28.71
2022-09-01T10:19:23.048Z,28.73
2022-09-01T10:20:27.059Z,28.81
2022-09-01T10:21:29.691Z,28.92
2022-09-01T10:22:32.799Z,28.91
2022-09-01T10:23:35.979Z,28.85
2022-09-01T10:24:44.659Z,28.48
2022-09-01T10:25:44.494Z,28.44
2022-09-01T10:26:47.466Z,28.49
2022-09-01T10:27:49.994Z,28.51
2022-09-01T10:28:52.602Z,28.68
2022-09-01T10:30:18.122Z,28.60
2022-09-01T10:31:00.245Z,28.60
2022-09-01T10:32:30.568Z,28.70
2022-09-01T10:33:15.877Z,28.81
2022-09-01T10:34:12.465Z,28.87
2022-09-01T10:35:18.242Z,28.91
2022-09-01T10:36:24.263Z,28.94
2022-09-01T10:37:27.373Z,28.99
2022-09-01T10:38:29.223Z,29.08
2022-09-01T10:39:34.466Z,29.17
2022-09-01T10:40:38.136Z,29.33
2022-09-01T10:41:41.632Z,29.44
2022-09-01T10:42:45.320Z,29.54
2022-09-01T10:43:48.774Z,29.54
2022-09-01T10:44:51.484Z,29.63
2022-09-01T10:46:05.419Z,29.64
2022-09-01T10:47:00.214Z,29.55
2022-09-01T10:48:03.177Z,29.51
2022-09-01T10:49:07.253Z,29.51
2022-09-01T10:50:11.271Z,29.57
2022-09-01T10:51:18.536Z,29.49
2022-09-01T10:52:18.770Z,29.42
2022-09-01T10:53:26.956Z,29.34
2022-09-01T10:54:26.675Z,29.25
2022-09-01T10:55:29.504Z,29.08
2022-09-01T10:56:36.630Z,28.89
2022-09-01T10:57:42.226Z,28.79
2022-09-01T10:59:56.419Z,28.81
2022-09-01T11:02:23.029Z,28.87
2022-09-01T11:03:00.404Z,28.76
2022-09-01T11:04:03.267Z,28.93
2022-09-01T11:05:07.143Z,28.99
2022-09-01T11:06:12.586Z,28.98
2022-09-01T11:07:15.109Z,28.90
2022-09-01T11:08:17.753Z,28.98
2022-09-01T11:09:22.170Z,29.02
2022-09-01T11:10:32.010Z,29.18
2022-09-01T11:11:30.402Z,29.30
2022-09-01T11:12:33.036Z,29.36
2022-09-01T11:13:35.559Z,29.33
2022-09-01T11:14:38.478Z,29.29
2022-09-01T11:15:41.195Z,29.50
2022-09-01T11:16:49.150Z,29.79
2022-09-01T11:17:48.392Z,29.99
2022-09-01T11:18:50.998Z,30.33
2022-09-01T11:19:55.503Z,30.65
2022-09-01T11:20:58.670Z,31.05
2022-09-01T11:22:02.549Z,31.25
2022-09-01T11:23:05.371Z,31.33
2022-09-01T11:24:07.887Z,31.36
2022-09-01T11:25:11.654Z,31.43
2022-09-01T11:26:19.726Z,31.76
2022-09-01T11:27:20.439Z,32.10
2022-09-01T11:28:23.012Z,32.34
2022-09-01T11:29:25.638Z,32.26
2022-09-01T11:30:28.609Z,32.42
2022-09-01T11:31:31.302Z,32.51
2022-09-01T11:32:33.997Z,32.54
2022-09-01T11:33:36.662Z,32.19
2022-09-01T11:34:39.227Z,32.28
2022-09-01T11:35:42.307Z,32.25
2022-09-01T11:36:45.183Z,32.21
2022-09-01T11:37:47.851Z,32.29
2022-09-01T11:38:50.658Z,32.31
2022-09-01T11:39:53.294Z,32.34
2022-09-01T11:40:56.359Z,32.35
2022-09-01T11:42:03.573Z,32.29
2022-09-01T11:43:03.753Z,32.14
2022-09-01T11:44:06.328Z,31.88
2022-09-01T11:45:08.882Z,31.66
2022-09-01T11:46:12.091Z,31.31
2022-09-01T11:47:14.767Z,30.81
2022-09-01T11:48:17.324Z,30.43
2022-09-01T11:49:19.891Z,30.22
2022-09-01T11:50:23.364Z,30.32
2022-09-01T11:51:26.030Z,30.33
2022-09-01T11:52:28.976Z,30.33
2022-09-01T11:53:31.599Z,30.36
2022-09-01T11:54:34.243Z,30.27
2022-09-01T11:55:36.838Z,30.34
2022-09-01T11:56:39.683Z,30.32
2022-09-01T11:57:42.252Z,29.87
2022-09-01T11:58:44.823Z,29.84
2022-09-01T11:59:47.391Z,29.80
2022-09-01T12:00:50.367Z,29.73
2022-09-01T12:01:53.419Z,29.65
2022-09-01T12:02:56.385Z,29.64
2022-09-01T12:03:59.291Z,29.65
2022-09-01T12:05:01.859Z,29.50
2022-09-01T12:06:04.633Z,29.54
2022-09-01T12:07:08.003Z,29.63
2022-09-01T12:08:11.711Z,29.62
2022-09-01T12:09:14.279Z,29.63
2022-09-01T12:10:18.647Z,29.68
2022-09-01T12:11:21.355Z,29.64
2022-09-01T12:12:24.031Z,29.65
2022-09-01T12:13:26.599Z,29.69
2022-09-01T12:14:43.407Z,29.65
2022-09-01T12:15:33.581Z,29.60
2022-09-01T12:16:36.607Z,29.72
2022-09-01T12:17:39.219Z,29.97
2022-09-01T12:18:41.782Z,30.22
2022-09-01T12:19:44.255Z,30.37
2022-09-01T12:21:51.888Z,30.42
2022-09-01T12:22:54.719Z,30.44
2022-09-01T12:23:57.391Z,30.27
2022-09-01T12:25:00.060Z,30.14
2022-09-01T12:26:03.032Z,30.00
2022-09-01T12:27:05.599Z,29.79
2022-09-01T12:28:08.268Z,29.69
2022-09-01T12:29:12.784Z,29.60
2022-09-01T12:30:16.462Z,29.58
2022-09-01T12:31:19.174Z,29.59
2022-09-01T12:32:21.885Z,29.66
2022-09-01T12:33:24.872Z,29.69
2022-09-01T12:34:27.716Z,29.67
2022-09-01T12:35:30.332Z,29.54
2022-09-01T12:36:34.099Z,29.48
2022-09-01T12:37:36.772Z,29.30
2022-09-01T12:38:39.373Z,29.34
2022-09-01T12:39:42.033Z,29.41
2022-09-01T12:40:45.303Z,29.61
2022-09-01T12:41:48.596Z,29.87
2022-09-01T12:42:51.528Z,30.09
2022-09-01T12:43:54.957Z,30.34
2022-09-01T12:44:58.759Z,30.42
2022-09-01T12:46:02.910Z,30.39
2022-09-01T12:47:05.839Z,30.53
2022-09-01T12:48:08.703Z,30.53
2022-09-01T12:49:12.647Z,30.60
2022-09-01T12:50:17.101Z,30.68
2022-09-01T12:51:20.120Z,30.72
2022-09-01T12:52:22.968Z,30.57
2022-09-01T12:53:25.903Z,30.39
2022-09-01T12:54:28.621Z,30.27
2022-09-01T12:56:35.956Z,30.00
2022-09-01T12:57:38.565Z,29.69
2022-09-01T12:58:41.542Z,29.33
2022-09-01T12:59:44.064Z,28.73
2022-09-01T13:00:48.350Z,28.41
2022-09-01T13:01:51.493Z,28.06
2022-09-01T13:02:54.281Z,27.81
2022-09-01T13:03:56.942Z,27.46
2022-09-01T13:04:59.460Z,27.27
2022-09-01T13:06:01.948Z,27.02
2022-09-01T13:07:04.532Z,26.77
2022-09-01T13:08:07.601Z,26.52
2022-09-01T13:09:10.488Z,26.25
2022-09-01T13:10:13.871Z,25.87
2022-09-01T13:11:16.440Z,25.71
2022-09-01T13:12:18.888Z,25.57
2022-09-01T13:13:21.526Z,25.46
2022-09-01T13:14:24.367Z,25.28
2022-09-01T13:15:27.426Z,25.12
2022-09-01T13:16:31.285Z,24.94
2022-09-01T13:17:33.888Z,24.78
2022-09-01T13:19:10.475Z,24.69
2022-09-01T13:19:40.969Z,24.57
2022-09-01T13:20:43.949Z,24.44
2022-09-01T13:21:46.582Z,24.35
2022-09-01T13:22:49.291Z,24.19
2022-09-01T13:23:51.960Z,24.05
2022-09-01T13:24:54.629Z,23.96
2022-09-01T13:25:58.068Z,23.95
2022-09-01T13:28:05.359Z,23.86
2022-09-01T13:29:07.963Z,23.77
2022-09-01T13:30:11.348Z,23.76
2022-09-01T13:31:30.414Z,23.72
2022-09-01T13:32:20.830Z,23.70
2022-09-01T13:33:23.786Z,23.81
2022-09-01T13:34:26.713Z,23.84
2022-09-01T13:35:29.359Z,23.89
2022-09-01T13:36:52.141Z,23.88
2022-09-01T13:37:37.164Z,23.85
2022-09-01T13:38:39.729Z,23.83
2022-09-01T13:39:42.847Z,23.87
2022-09-01T13:40:45.801Z,23.86
2022-09-01T13:41:48.702Z,23.80
2022-09-01T13:42:51.375Z,23.71
2022-09-01T13:43:54.047Z,23.64
2022-09-01T13:44:57.060Z,23.61
2022-09-01T13:46:00.110Z,23.58
2022-09-01T13:48:22.861Z,23.44
2022-09-01T13:49:43.514Z,23.39
2022-09-01T13:50:21.469Z,23.31
2022-09-01T13:51:21.524Z,23.17
2022-09-01T13:52:24.230Z,23.02
2022-09-01T13:53:26.969Z,22.91
2022-09-01T13:54:29.599Z,22.78
2022-09-01T13:55:32.203Z,22.59
2022-09-01T13:56:35.284Z,22.55
2022-09-01T13:57:37.951Z,22.45
2022-09-01T13:58:40.889Z,22.42
2022-09-01T13:59:43.492Z,22.37
2022-09-01T14:00:46.214Z,22.32
2022-09-01T14:01:49.200Z,22.30
2022-09-01T14:02:51.907Z,22.33